Buxton, Maine
Current Conditions -  °F | °C
As of 6:51 AM on Thursday 23 Oct 2014 (Local Time) from KPWM Reporting Station
Light Rain Light Rain  
Wind Chill: 50°   Ceiling: 900
Heat Index: 50°   Visibility: 4mi
Dew Point: 46°   Wind: 21mph
Humidity: 86%   Direction: 20°NNE
Pressure: 29.79"   Gusts: 30mph
Location:  43.6671°N, 70.5709°W
Report Text: KPWM 231051Z 02018G26KT 4SM -RA BR OVC009 10/08 A2979 RMK AO2 PK WND 03030/1038 RAB48 SLP088 P0000 T01000078
Loading
Personal Weather Stations






























Interactive Weather Map
Tropical Storm Tracking
New forecast layout! Learn more

10-Day Weather Forecast

Advertisements
Track Severe Weather on mobile